createdAt,value
2022-11-01T00:01:58.913Z,39.17
2022-11-01T00:04:26.871Z,39.37
2022-11-01T00:06:55.101Z,39.28
2022-11-01T00:09:23.259Z,39.34
2022-11-01T00:11:52.471Z,39.23
2022-11-01T00:14:21.530Z,39.27
2022-11-01T00:16:50.011Z,38.90
2022-11-01T00:19:18.416Z,39.18
2022-11-01T00:21:46.510Z,38.97
2022-11-01T00:24:14.564Z,39.09
2022-11-01T00:26:42.561Z,39.07
2022-11-01T00:29:13.044Z,39.00
2022-11-01T00:31:41.153Z,38.92
2022-11-01T00:34:09.329Z,38.78
2022-11-01T00:36:37.584Z,38.77
2022-11-01T00:39:06.217Z,38.68
2022-11-01T00:41:34.167Z,38.76
2022-11-01T00:44:02.196Z,38.99
2022-11-01T00:46:31.712Z,38.59
2022-11-01T00:48:59.624Z,38.69
2022-11-01T00:51:27.786Z,38.85
2022-11-01T00:53:55.692Z,38.68
2022-11-01T00:56:23.633Z,38.71
2022-11-01T00:58:51.520Z,39.02
2022-11-01T01:01:19.560Z,38.73
2022-11-01T01:03:48.962Z,38.82
2022-11-01T01:06:16.845Z,38.75
2022-11-01T01:08:44.779Z,38.91
2022-11-01T01:11:12.645Z,38.69
2022-11-01T01:13:40.507Z,38.80
2022-11-01T01:16:09.966Z,38.64
2022-11-01T01:18:38.178Z,38.61
2022-11-01T01:21:07.517Z,38.61
2022-11-01T01:23:35.501Z,38.68
2022-11-01T01:26:07.414Z,38.59
2022-11-01T01:28:40.124Z,38.48
2022-11-01T01:31:12.866Z,38.44
2022-11-01T01:33:40.893Z,38.54
2022-11-01T01:36:10.883Z,38.73
2022-11-01T01:38:38.991Z,38.33
2022-11-01T01:41:24.879Z,38.48
2022-11-01T01:43:52.854Z,38.67
2022-11-01T01:46:20.735Z,38.65
2022-11-01T01:48:53.187Z,38.63
2022-11-01T01:51:25.998Z,38.52
2022-11-01T01:53:56.165Z,38.51
2022-11-01T01:56:29.527Z,38.89
2022-11-01T01:59:02.502Z,38.79
2022-11-01T02:01:31.004Z,38.83
2022-11-01T02:04:02.257Z,39.04
2022-11-01T02:06:34.517Z,38.88
2022-11-01T02:09:05.189Z,38.99
2022-11-01T02:11:33.086Z,38.67
2022-11-01T02:14:01.563Z,38.82
2022-11-01T02:16:44.302Z,39.10
2022-11-01T02:20:00.483Z,38.85
2022-11-01T02:22:46.482Z,39.07
2022-11-01T02:25:38.330Z,39.21
2022-11-01T02:28:24.542Z,39.00
2022-11-01T02:31:04.612Z,39.04
2022-11-01T02:33:38.721Z,39.03
2022-11-01T02:36:12.844Z,39.10
2022-11-01T02:38:48.287Z,39.44
2022-11-01T02:41:21.708Z,39.03
2022-11-01T02:43:54.988Z,39.32
2022-11-01T02:46:41.489Z,39.12
2022-11-01T02:49:14.142Z,39.07
2022-11-01T02:51:44.840Z,39.21
2022-11-01T02:54:22.429Z,39.14
2022-11-01T02:56:51.109Z,39.19
2022-11-01T02:59:24.856Z,39.26
2022-11-01T03:01:59.173Z,39.45
2022-11-01T03:04:28.616Z,39.23
2022-11-01T03:07:03.614Z,39.33
2022-11-01T03:09:32.805Z,39.19
2022-11-01T03:12:03.628Z,39.48
2022-11-01T03:14:36.767Z,39.64
2022-11-01T03:17:10.994Z,39.50
2022-11-01T03:19:46.180Z,39.24
2022-11-01T03:22:19.726Z,39.45
2022-11-01T03:24:53.444Z,39.38
2022-11-01T03:27:28.778Z,39.27
2022-11-01T03:30:01.498Z,39.48
2022-11-01T03:32:34.023Z,39.83
2022-11-01T03:35:05.670Z,39.40
2022-11-01T03:37:36.065Z,39.65
2022-11-01T03:40:07.760Z,39.49
2022-11-01T03:42:39.016Z,39.54
2022-11-01T03:45:12.017Z,39.57
2022-11-01T03:47:40.143Z,39.59
2022-11-01T03:50:18.455Z,39.65
2022-11-01T03:52:47.299Z,39.77
2022-11-01T03:55:19.548Z,39.92
2022-11-01T03:57:48.715Z,40.02
2022-11-01T04:00:19.144Z,39.58
2022-11-01T04:02:47.062Z,39.70
2022-11-01T04:05:16.876Z,39.78
2022-11-01T04:07:45.420Z,39.59
2022-11-01T04:10:14.081Z,39.86
2022-11-01T04:12:42.319Z,40.00
2022-11-01T04:15:29.638Z,39.63
2022-11-01T04:18:22.782Z,39.67
2022-11-01T04:20:53.687Z,39.92
2022-11-01T04:23:21.946Z,40.00
2022-11-01T04:25:49.800Z,40.03
2022-11-01T04:28:17.713Z,40.04
2022-11-01T04:30:45.625Z,40.05
2022-11-01T04:33:13.492Z,39.84
2022-11-01T04:35:41.386Z,39.71
2022-11-01T04:38:11.710Z,39.85
2022-11-01T04:40:40.065Z,39.66
2022-11-01T04:43:07.975Z,39.87
2022-11-01T04:45:35.856Z,40.04
2022-11-01T04:48:06.015Z,39.99
2022-11-01T04:50:34.433Z,39.78
2022-11-01T04:53:02.838Z,39.92
2022-11-01T04:55:32.333Z,40.05
2022-11-01T04:58:00.403Z,39.67
2022-11-01T05:00:28.699Z,39.78
2022-11-01T05:03:02.936Z,39.65
2022-11-01T05:05:31.371Z,40.09
2022-11-01T05:08:03.679Z,39.68
2022-11-01T05:10:34.269Z,39.84
2022-11-01T05:13:03.354Z,40.05
2022-11-01T05:15:31.580Z,39.72
2022-11-01T05:17:59.547Z,39.90
2022-11-01T05:20:27.472Z,39.67
2022-11-01T05:22:59.361Z,39.71
2022-11-01T05:25:27.904Z,39.77
2022-11-01T05:28:01.916Z,40.16
2022-11-01T05:30:30.098Z,40.16
2022-11-01T05:32:59.688Z,39.92
2022-11-01T05:35:28.308Z,40.22
2022-11-01T05:37:56.950Z,39.94
2022-11-01T05:40:25.783Z,40.23
2022-11-01T05:42:54.193Z,40.13
2022-11-01T05:45:23.516Z,39.83
2022-11-01T05:47:51.438Z,39.92
2022-11-01T05:50:19.499Z,39.83
2022-11-01T05:52:47.462Z,40.15
2022-11-01T05:55:15.666Z,39.96
2022-11-01T05:57:43.671Z,39.96
2022-11-01T06:00:12.997Z,40.26
2022-11-01T06:02:42.790Z,40.13
2022-11-01T06:05:11.254Z,39.89
2022-11-01T06:07:39.114Z,40.14
2022-11-01T06:10:07.984Z,40.01
2022-11-01T06:12:35.844Z,40.08
2022-11-01T06:15:03.713Z,40.04
2022-11-01T06:17:31.668Z,40.41
2022-11-01T06:20:01.255Z,39.91
2022-11-01T06:22:29.251Z,40.19
2022-11-01T06:24:57.116Z,40.15
2022-11-01T06:27:25.080Z,40.30
2022-11-01T06:29:52.932Z,39.90
2022-11-01T06:32:20.866Z,40.36
2022-11-01T06:34:48.711Z,40.24
2022-11-01T06:37:18.011Z,40.09
2022-11-01T06:39:45.879Z,40.25
2022-11-01T06:42:14.320Z,39.93
2022-11-01T06:44:42.408Z,39.88
2022-11-01T06:47:10.516Z,39.91
2022-11-01T06:49:38.418Z,39.90
2022-11-01T06:52:06.847Z,40.04
2022-11-01T06:54:36.211Z,40.23
2022-11-01T06:57:04.123Z,40.06
2022-11-01T06:59:32.062Z,40.10
2022-11-01T07:02:00.121Z,39.96
2022-11-01T07:04:29.322Z,39.88
2022-11-01T07:06:57.277Z,39.85
2022-11-01T07:09:25.235Z,40.23
2022-11-01T07:11:54.562Z,39.85
2022-11-01T07:14:22.451Z,40.05
2022-11-01T07:16:50.402Z,39.72
2022-11-01T07:19:18.251Z,39.62
2022-11-01T07:21:46.263Z,39.70
2022-11-01T07:24:14.158Z,39.56
2022-11-01T07:26:42.091Z,39.54
2022-11-01T07:29:11.366Z,39.71
2022-11-01T07:31:39.989Z,39.82
2022-11-01T07:34:07.898Z,39.84
2022-11-01T07:36:35.799Z,39.44
2022-11-01T07:39:03.776Z,39.79
2022-11-01T07:41:31.662Z,39.47
2022-11-01T07:43:59.667Z,39.71
2022-11-01T07:46:30.492Z,39.60
2022-11-01T07:49:00.425Z,39.75
2022-11-01T07:51:28.803Z,39.63
2022-11-01T07:53:56.672Z,39.40
2022-11-01T07:56:24.658Z,39.48
2022-11-01T07:58:52.564Z,39.94
2022-11-01T08:01:20.639Z,39.57
2022-11-01T08:03:49.951Z,39.83
2022-11-01T08:06:18.290Z,39.99
2022-11-01T08:08:47.061Z,39.96
2022-11-01T08:11:14.969Z,39.58
2022-11-01T08:13:42.830Z,39.77
2022-11-01T08:16:10.703Z,39.78
2022-11-01T08:18:38.669Z,39.94
2022-11-01T08:21:08.026Z,39.99
2022-11-01T08:23:35.920Z,39.88
2022-11-01T08:26:06.255Z,39.85
2022-11-01T08:28:34.155Z,39.86
2022-11-01T08:31:07.137Z,39.61
2022-11-01T08:33:35.386Z,39.38
2022-11-01T08:36:03.732Z,39.57
2022-11-01T08:38:33.005Z,39.60
2022-11-01T08:41:01.328Z,39.39
2022-11-01T08:43:29.404Z,39.24
2022-11-01T08:45:59.956Z,39.31
2022-11-01T08:48:27.837Z,39.17
2022-11-01T08:50:55.719Z,39.36
2022-11-01T08:53:24.913Z,39.25
2022-11-01T08:55:57.334Z,39.14
2022-11-01T08:58:25.780Z,39.27
2022-11-01T09:00:53.775Z,39.20
2022-11-01T09:03:21.728Z,39.10
2022-11-01T09:05:49.632Z,39.17
2022-11-01T09:08:17.525Z,39.10
2022-11-01T09:10:45.391Z,39.42
2022-11-01T09:13:14.620Z,39.08
2022-11-01T09:15:42.578Z,39.29
2022-11-01T09:18:10.493Z,39.24
2022-11-01T09:20:39.151Z,39.16
2022-11-01T09:23:07.053Z,39.11
2022-11-01T09:25:35.148Z,39.02
2022-11-01T09:28:03.003Z,39.15
2022-11-01T09:30:32.240Z,38.87
2022-11-01T09:33:00.437Z,38.71
2022-11-01T09:35:29.882Z,38.80
2022-11-01T09:38:01.494Z,38.88
2022-11-01T09:40:32.939Z,38.71
2022-11-01T09:43:01.966Z,38.59
2022-11-01T09:45:35.410Z,38.99
2022-11-01T09:48:06.647Z,38.86
2022-11-01T09:50:37.768Z,38.70
2022-11-01T09:53:09.819Z,38.58
2022-11-01T09:55:48.721Z,38.31
2022-11-01T09:58:25.431Z,38.51
2022-11-01T10:01:02.707Z,38.60
2022-11-01T10:03:50.718Z,38.79
2022-11-01T10:06:23.391Z,39.15
2022-11-01T10:09:05.919Z,38.82
2022-11-01T10:11:44.762Z,39.26
2022-11-01T10:14:27.471Z,39.41
2022-11-01T10:17:07.548Z,39.47
2022-11-01T10:19:36.693Z,39.42
2022-11-01T10:22:13.171Z,39.48
2022-11-01T10:24:47.239Z,39.08
2022-11-01T10:27:21.790Z,39.29
2022-11-01T10:29:56.935Z,39.35
2022-11-01T10:32:32.136Z,39.11
2022-11-01T10:35:05.340Z,39.50
2022-11-01T10:37:41.018Z,39.31
2022-11-01T10:40:20.044Z,39.49
2022-11-01T10:42:48.057Z,39.33
2022-11-01T10:45:19.369Z,39.22
2022-11-01T10:47:51.206Z,39.31
2022-11-01T10:50:23.683Z,39.20
2022-11-01T10:52:55.743Z,39.05
2022-11-01T10:55:28.024Z,38.92
2022-11-01T10:58:01.090Z,38.91
2022-11-01T11:00:32.707Z,38.97
2022-11-01T11:03:15.519Z,38.55
2022-11-01T11:05:43.734Z,38.71
2022-11-01T11:08:17.287Z,38.74
2022-11-01T11:10:46.171Z,38.87
2022-11-01T11:13:16.555Z,38.55
2022-11-01T11:15:46.773Z,38.76
2022-11-01T11:18:25.191Z,38.51
2022-11-01T11:20:57.386Z,38.84
2022-11-01T11:23:29.594Z,38.68
2022-11-01T11:26:03.394Z,38.77
2022-11-01T11:28:34.010Z,38.48
2022-11-01T11:31:14.579Z,38.53
2022-11-01T11:33:51.510Z,38.37
2022-11-01T11:36:27.781Z,38.52
2022-11-01T11:38:56.709Z,38.39
2022-11-01T11:41:30.040Z,38.51
2022-11-01T11:43:59.528Z,38.75
2022-11-01T11:46:27.750Z,38.75
2022-11-01T11:49:00.718Z,38.34
2022-11-01T11:51:30.340Z,38.22
2022-11-01T11:54:26.269Z,38.30
2022-11-01T11:57:11.160Z,38.08
2022-11-01T11:59:42.076Z,38.50
2022-11-01T12:02:19.866Z,38.45
2022-11-01T12:04:54.390Z,38.90
2022-11-01T12:07:29.182Z,38.96
2022-11-01T12:09:58.729Z,39.05
2022-11-01T12:12:28.589Z,39.20
2022-11-01T12:14:57.527Z,39.05
2022-11-01T12:17:35.316Z,39.08
2022-11-01T12:20:14.007Z,39.19
2022-11-01T12:22:46.803Z,39.06
2022-11-01T12:25:19.116Z,39.20
2022-11-01T12:27:53.691Z,39.11
2022-11-01T12:30:23.889Z,38.97
2022-11-01T12:32:54.279Z,39.16
2022-11-01T12:35:29.239Z,39.09
2022-11-01T12:38:20.960Z,38.95
2022-11-01T12:40:53.146Z,38.77
2022-11-01T12:43:28.575Z,39.02
2022-11-01T12:46:02.187Z,39.16
2022-11-01T12:48:35.626Z,38.99
2022-11-01T12:51:09.279Z,38.94
2022-11-01T12:53:43.863Z,39.05
2022-11-01T12:56:13.107Z,39.21
2022-11-01T12:58:41.038Z,38.91
2022-11-01T13:01:27.494Z,38.87
2022-11-01T13:04:09.656Z,38.74
2022-11-01T13:06:55.250Z,38.71
2022-11-01T13:09:31.533Z,38.93
2022-11-01T13:12:04.840Z,38.77
2022-11-01T13:14:44.880Z,39.17
2022-11-01T13:17:24.805Z,39.32
2022-11-01T13:20:00.550Z,39.45
2022-11-01T13:22:38.640Z,39.43
2022-11-01T13:25:14.638Z,39.45
2022-11-01T13:27:48.612Z,39.18
2022-11-01T13:30:20.410Z,39.34
2022-11-01T13:32:53.173Z,39.72
2022-11-01T13:35:38.473Z,39.49
2022-11-01T13:38:19.356Z,39.13
2022-11-01T13:40:55.182Z,39.25
2022-11-01T13:43:25.713Z,39.33
2022-11-01T13:46:18.382Z,39.23
2022-11-01T13:49:04.416Z,39.01
2022-11-01T13:51:41.475Z,38.97
2022-11-01T13:54:19.152Z,38.98
2022-11-01T13:56:54.752Z,38.87
2022-11-01T13:59:32.176Z,38.87
2022-11-01T14:02:34.611Z,38.88
2022-11-01T14:05:04.017Z,38.82
2022-11-01T14:07:34.816Z,38.67
2022-11-01T14:10:11.079Z,38.64
2022-11-01T14:12:44.957Z,38.69
2022-11-01T14:15:25.010Z,38.52
2022-11-01T14:18:03.783Z,38.37
2022-11-01T14:20:53.281Z,38.27
2022-11-01T14:23:59.435Z,38.42
2022-11-01T14:27:02.039Z,38.17
2022-11-01T14:29:31.093Z,38.23
2022-11-01T14:32:00.344Z,38.46
2022-11-01T14:34:35.376Z,38.10
2022-11-01T14:37:14.898Z,37.94
2022-11-01T14:39:49.082Z,38.09
2022-11-01T14:42:26.393Z,38.40
2022-11-01T14:44:59.950Z,38.20
2022-11-01T14:47:36.255Z,38.11
2022-11-01T14:50:15.024Z,38.34
2022-11-01T14:52:49.976Z,38.47
2022-11-01T14:55:23.180Z,38.40
2022-11-01T14:58:07.060Z,38.14
2022-11-01T15:00:35.075Z,38.45
2022-11-01T15:03:03.309Z,38.05
2022-11-01T15:05:31.226Z,37.98
2022-11-01T15:08:00.612Z,37.99
2022-11-01T15:10:29.659Z,38.08
2022-11-01T15:13:01.696Z,37.91
2022-11-01T15:15:33.281Z,38.05
2022-11-01T15:18:05.441Z,37.71
2022-11-01T15:20:41.632Z,38.13
2022-11-01T15:23:12.268Z,38.10
2022-11-01T15:25:40.788Z,37.89
2022-11-01T15:28:21.403Z,38.04
2022-11-01T15:30:56.956Z,37.75
2022-11-01T15:33:27.943Z,38.12
2022-11-01T15:35:58.050Z,37.93
2022-11-01T15:38:27.299Z,37.89
2022-11-01T15:40:55.485Z,37.82
2022-11-01T15:43:27.911Z,37.78
2022-11-01T15:45:58.408Z,37.61
2022-11-01T15:48:30.144Z,37.49
2022-11-01T15:51:02.225Z,37.61
2022-11-01T15:53:35.048Z,37.67
2022-11-01T15:56:08.305Z,37.69
2022-11-01T15:58:41.763Z,37.83
2022-11-01T16:01:15.561Z,37.66
2022-11-01T16:03:48.992Z,37.40
2022-11-01T16:06:21.396Z,37.58
2022-11-01T16:08:53.663Z,37.48
2022-11-01T16:11:24.935Z,37.72
2022-11-01T16:14:02.955Z,37.54
2022-11-01T16:16:57.539Z,37.58
2022-11-01T16:19:35.980Z,37.58
2022-11-01T16:22:05.494Z,37.61
2022-11-01T16:24:33.396Z,37.53
2022-11-01T16:27:03.797Z,37.66
2022-11-01T16:29:50.255Z,37.53
2022-11-01T16:32:20.219Z,37.74
2022-11-01T16:34:48.288Z,37.76
2022-11-01T16:37:24.935Z,37.46
2022-11-01T16:39:53.709Z,37.54
2022-11-01T16:42:24.509Z,37.74
2022-11-01T16:44:57.160Z,37.53
2022-11-01T16:47:25.220Z,37.84
2022-11-01T16:49:55.053Z,37.76
2022-11-01T16:52:23.044Z,37.82
2022-11-01T16:54:51.566Z,37.50
2022-11-01T16:57:25.166Z,37.72
2022-11-01T16:59:55.657Z,37.69
2022-11-01T17:02:26.307Z,37.77
2022-11-01T17:04:58.742Z,37.80
2022-11-01T17:07:27.646Z,37.81
2022-11-01T17:09:55.741Z,37.83
2022-11-01T17:12:23.704Z,38.06
2022-11-01T17:14:52.517Z,38.08
2022-11-01T17:17:24.817Z,37.85
2022-11-01T17:20:00.159Z,37.80
2022-11-01T17:22:35.179Z,38.10
2022-11-01T17:25:04.191Z,37.98
2022-11-01T17:27:32.285Z,38.05
2022-11-01T17:30:00.274Z,37.95
2022-11-01T17:32:29.663Z,38.39
2022-11-01T17:34:57.613Z,38.32
2022-11-01T17:37:32.319Z,38.60
2022-11-01T17:40:01.875Z,38.53
2022-11-01T17:42:29.775Z,38.30
2022-11-01T17:44:57.666Z,38.60
2022-11-01T17:47:29.953Z,38.63
2022-11-01T17:49:59.268Z,38.99
2022-11-01T17:52:27.207Z,38.71
2022-11-01T17:54:55.094Z,39.11
2022-11-01T17:57:23.019Z,39.18
2022-11-01T17:59:50.993Z,38.96
2022-11-01T18:02:19.001Z,38.75
2022-11-01T18:04:47.016Z,39.02
2022-11-01T18:07:17.006Z,38.95
2022-11-01T18:09:44.891Z,38.92
2022-11-01T18:12:17.898Z,38.90
2022-11-01T18:14:55.406Z,38.88
2022-11-01T18:17:34.487Z,38.55
2022-11-01T18:20:13.022Z,38.89
2022-11-01T18:22:50.486Z,38.59
2022-11-01T18:25:27.123Z,38.58
2022-11-01T18:27:56.782Z,38.96
2022-11-01T18:30:25.783Z,38.77
2022-11-01T18:32:59.026Z,38.66
2022-11-01T18:35:32.836Z,38.92
2022-11-01T18:38:15.911Z,39.04
2022-11-01T18:40:56.873Z,38.86
2022-11-01T18:43:25.140Z,39.13
2022-11-01T18:46:23.339Z,39.22
2022-11-01T18:48:43.834Z,39.04
2022-11-01T18:51:15.123Z,39.22
2022-11-01T18:53:44.426Z,38.96
2022-11-01T18:56:21.473Z,39.10
2022-11-01T18:58:50.814Z,39.45
2022-11-01T19:01:20.748Z,39.10
2022-11-01T19:03:59.956Z,39.20
2022-11-01T19:06:28.250Z,39.42
2022-11-01T19:08:59.412Z,39.43
2022-11-01T19:11:29.805Z,39.18
2022-11-01T19:13:59.332Z,39.63
2022-11-01T19:16:27.543Z,39.73
2022-11-01T19:18:55.532Z,39.24
2022-11-01T19:21:25.356Z,39.42
2022-11-01T19:23:55.245Z,39.71
2022-11-01T19:26:31.941Z,39.85
2022-11-01T19:29:00.064Z,39.68
2022-11-01T19:31:30.952Z,39.48
2022-11-01T19:34:03.503Z,39.69
2022-11-01T19:36:40.962Z,39.54
2022-11-01T19:39:21.896Z,39.79
2022-11-01T19:41:52.171Z,39.64
2022-11-01T19:44:22.428Z,39.76
2022-11-01T19:46:52.330Z,40.03
2022-11-01T19:49:24.831Z,40.04
2022-11-01T19:52:03.600Z,40.04
2022-11-01T19:54:36.134Z,39.75
2022-11-01T19:57:15.238Z,39.68
2022-11-01T19:59:43.589Z,39.88
2022-11-01T20:02:17.342Z,39.84
2022-11-01T20:04:45.483Z,40.24
2022-11-01T20:07:17.018Z,40.01
2022-11-01T20:09:45.168Z,40.34
2022-11-01T20:12:21.456Z,40.30
2022-11-01T20:14:50.100Z,40.11
2022-11-01T20:17:18.190Z,40.25
2022-11-01T20:19:46.256Z,40.55
2022-11-01T20:22:14.430Z,40.57
2022-11-01T20:24:42.681Z,40.72
2022-11-01T20:27:11.220Z,40.34
2022-11-01T20:29:42.760Z,40.42
2022-11-01T20:32:10.934Z,40.65
2022-11-01T20:34:39.262Z,40.64
2022-11-01T20:37:27.633Z,40.88
2022-11-01T20:39:56.050Z,40.48
2022-11-01T20:42:24.669Z,40.63
2022-11-01T20:44:54.015Z,40.57
2022-11-01T20:47:21.991Z,40.60
2022-11-01T20:49:50.200Z,40.85
2022-11-01T20:55:07.229Z,40.71
2022-11-01T20:57:35.376Z,40.73
2022-11-01T21:00:05.719Z,41.14
2022-11-01T21:02:34.675Z,41.17
2022-11-01T21:05:06.495Z,40.79
2022-11-01T21:07:36.850Z,41.03
2022-11-01T21:10:30.468Z,40.80
2022-11-01T21:13:02.686Z,40.88
2022-11-01T21:15:37.522Z,41.28
2022-11-01T21:18:31.723Z,41.01
2022-11-01T21:21:02.690Z,41.32
2022-11-01T21:23:35.771Z,41.36
2022-11-01T21:26:11.761Z,41.05
2022-11-01T21:28:44.799Z,41.07
2022-11-01T21:31:26.483Z,41.38
2022-11-01T21:33:56.543Z,41.21
2022-11-01T21:36:34.858Z,41.30
2022-11-01T21:39:05.030Z,41.71
2022-11-01T21:41:35.528Z,41.27
2022-11-01T21:44:17.467Z,41.55
2022-11-01T21:46:48.584Z,41.30
2022-11-01T21:49:25.240Z,41.34
2022-11-01T21:51:53.474Z,41.35
2022-11-01T21:54:21.616Z,41.42
2022-11-01T21:56:49.591Z,41.32
2022-11-01T21:59:18.450Z,41.70
2022-11-01T22:01:49.374Z,41.35
2022-11-01T22:04:17.999Z,41.57
2022-11-01T22:06:47.933Z,41.43
2022-11-01T22:09:16.937Z,41.65
2022-11-01T22:11:45.062Z,41.93
2022-11-01T22:14:13.371Z,41.77
2022-11-01T22:16:41.495Z,41.98
2022-11-01T22:19:11.152Z,41.92
2022-11-01T22:21:39.409Z,42.21
2022-11-01T22:24:07.983Z,41.95
2022-11-01T22:26:35.908Z,41.89
2022-11-01T22:29:03.803Z,41.94
2022-11-01T22:31:31.863Z,42.06
2022-11-01T22:33:59.752Z,42.34
2022-11-01T22:36:30.855Z,41.99
2022-11-01T22:38:59.995Z,42.17
2022-11-01T22:41:32.985Z,42.03
2022-11-01T22:44:05.023Z,42.45
2022-11-01T22:46:45.878Z,42.15
2022-11-01T22:49:19.211Z,42.29
2022-11-01T22:51:50.371Z,42.15
2022-11-01T22:54:33.647Z,42.23
2022-11-01T22:57:10.502Z,42.14
2022-11-01T22:59:43.575Z,42.30
2022-11-01T23:02:25.124Z,42.42
2022-11-01T23:05:02.226Z,42.18
2022-11-01T23:07:35.446Z,42.13
2022-11-01T23:10:08.102Z,42.14
2022-11-01T23:12:55.742Z,42.02
2022-11-01T23:15:28.528Z,42.34
2022-11-01T23:18:02.813Z,42.38
2022-11-01T23:20:30.893Z,42.19
2022-11-01T23:23:00.897Z,42.28
2022-11-01T23:25:30.252Z,42.21
2022-11-01T23:27:58.107Z,42.45
2022-11-01T23:30:26.298Z,42.16
2022-11-01T23:32:54.217Z,42.58
2022-11-01T23:35:23.147Z,42.42
2022-11-01T23:37:52.342Z,42.56
2022-11-01T23:40:23.113Z,42.18
2022-11-01T23:42:51.603Z,42.34
2022-11-01T23:45:27.507Z,42.67
2022-11-01T23:47:55.863Z,42.51
2022-11-01T23:50:28.194Z,42.44
2022-11-01T23:52:58.792Z,42.77
2022-11-01T23:55:31.616Z,42.64
2022-11-01T23:58:02.487Z,42.44
